sensor_id;sensor_type;location;lat;lon;timestamp;temperature;humidity
46706;DHT22;33519;50.712;7.124;2023-05-10T00:00:10;12.40;99.90
46706;DHT22;33519;50.712;7.124;2023-05-10T00:02:37;12.40;99.90
46706;DHT22;33519;50.712;7.124;2023-05-10T00:05:04;12.40;99.90
46706;DHT22;33519;50.712;7.124;2023-05-10T00:07:31;12.40;99.90
46706;DHT22;33519;50.712;7.124;2023-05-10T00:09:58;12.40;99.90
46706;DHT22;33519;50.712;7.124;2023-05-10T00:12:24;12.40;99.90
46706;DHT22;33519;50.712;7.124;2023-05-10T00:14:51;12.40;99.90
46706;DHT22;33519;50.712;7.124;2023-05-10T00:17:17;12.40;99.90
46706;DHT22;33519;50.712;7.124;2023-05-10T00:19:44;12.50;99.90
46706;DHT22;33519;50.712;7.124;2023-05-10T00:22:10;12.40;99.90
46706;DHT22;33519;50.712;7.124;2023-05-10T00:24:37;12.40;99.90
46706;DHT22;33519;50.712;7.124;2023-05-10T00:27:04;12.40;99.90
46706;DHT22;33519;50.712;7.124;2023-05-10T00:29:30;12.40;99.90
46706;DHT22;33519;50.712;7.124;2023-05-10T00:31:58;12.40;99.90
46706;DHT22;33519;50.712;7.124;2023-05-10T00:34:24;12.40;99.90
46706;DHT22;33519;50.712;7.124;2023-05-10T00:36:51;12.40;99.90
46706;DHT22;33519;50.712;7.124;2023-05-10T00:39:18;12.40;99.90
46706;DHT22;33519;50.712;7.124;2023-05-10T00:41:44;12.40;99.90
46706;DHT22;33519;50.712;7.124;2023-05-10T00:44:11;12.40;99.90
46706;DHT22;33519;50.712;7.124;2023-05-10T00:46:38;12.50;99.90
46706;DHT22;33519;50.712;7.124;2023-05-10T00:49:04;12.40;99.90
46706;DHT22;33519;50.712;7.124;2023-05-10T00:51:31;12.40;99.90
46706;DHT22;33519;50.712;7.124;2023-05-10T00:53:58;12.40;99.90
46706;DHT22;33519;50.712;7.124;2023-05-10T00:56:25;12.40;99.90
46706;DHT22;33519;50.712;7.124;2023-05-10T00:58:51;12.40;99.90
46706;DHT22;33519;50.712;7.124;2023-05-10T01:01:18;12.40;99.90
46706;DHT22;33519;50.712;7.124;2023-05-10T01:03:45;12.40;99.90
46706;DHT22;33519;50.712;7.124;2023-05-10T01:06:13;12.40;99.90
46706;DHT22;33519;50.712;7.124;2023-05-10T01:08:39;12.40;99.90
46706;DHT22;33519;50.712;7.124;2023-05-10T01:11:07;12.40;99.90
46706;DHT22;33519;50.712;7.124;2023-05-10T01:13:35;12.40;99.90
46706;DHT22;33519;50.712;7.124;2023-05-10T01:16:02;12.40;99.90
46706;DHT22;33519;50.712;7.124;2023-05-10T01:18:30;12.40;99.90
46706;DHT22;33519;50.712;7.124;2023-05-10T01:21:30;12.40;99.90
46706;DHT22;33519;50.712;7.124;2023-05-10T01:34:26;12.40;99.90
46706;DHT22;33519;50.712;7.124;2023-05-10T01:42:03;12.40;99.90
46706;DHT22;33519;50.712;7.124;2023-05-10T01:44:35;12.40;99.90
46706;DHT22;33519;50.712;7.124;2023-05-10T01:47:10;12.30;99.90
46706;DHT22;33519;50.712;7.124;2023-05-10T01:49:50;12.30;99.90
46706;DHT22;33519;50.712;7.124;2023-05-10T01:52:18;12.30;99.90
46706;DHT22;33519;50.712;7.124;2023-05-10T01:54:49;12.30;99.90
46706;DHT22;33519;50.712;7.124;2023-05-10T01:57:17;12.30;99.90
46706;DHT22;33519;50.712;7.124;2023-05-10T01:59:46;12.30;99.90
46706;DHT22;33519;50.712;7.124;2023-05-10T02:02:15;12.30;99.90
46706;DHT22;33519;50.712;7.124;2023-05-10T02:04:43;12.30;99.90
46706;DHT22;33519;50.712;7.124;2023-05-10T02:07:11;12.30;99.90
46706;DHT22;33519;50.712;7.124;2023-05-10T02:09:38;12.30;99.90
46706;DHT22;33519;50.712;7.124;2023-05-10T02:12:05;12.30;99.90
46706;DHT22;33519;50.712;7.124;2023-05-10T02:14:33;12.30;99.90
46706;DHT22;33519;50.712;7.124;2023-05-10T02:17:01;12.20;99.90
46706;DHT22;33519;50.712;7.124;2023-05-10T02:19:29;12.20;99.90
46706;DHT22;33519;50.712;7.124;2023-05-10T02:21:56;12.20;99.90
46706;DHT22;33519;50.712;7.124;2023-05-10T02:24:23;12.20;99.90
46706;DHT22;33519;50.712;7.124;2023-05-10T02:26:51;12.20;99.90
46706;DHT22;33519;50.712;7.124;2023-05-10T02:29:19;12.20;99.90
46706;DHT22;33519;50.712;7.124;2023-05-10T02:31:46;12.20;99.90
46706;DHT22;33519;50.712;7.124;2023-05-10T02:34:13;12.20;99.90
46706;DHT22;33519;50.712;7.124;2023-05-10T02:36:40;12.20;99.90
46706;DHT22;33519;50.712;7.124;2023-05-10T02:39:08;12.20;99.90
46706;DHT22;33519;50.712;7.124;2023-05-10T02:41:40;12.20;99.90
46706;DHT22;33519;50.712;7.124;2023-05-10T02:44:07;12.20;99.90
46706;DHT22;33519;50.712;7.124;2023-05-10T02:49:08;12.20;99.90
46706;DHT22;33519;50.712;7.124;2023-05-10T02:51:35;12.20;99.90
46706;DHT22;33519;50.712;7.124;2023-05-10T02:54:13;12.20;99.90
46706;DHT22;33519;50.712;7.124;2023-05-10T02:56:42;12.20;99.90
46706;DHT22;33519;50.712;7.124;2023-05-10T02:59:10;12.20;99.90
46706;DHT22;33519;50.712;7.124;2023-05-10T03:01:37;12.10;99.90
46706;DHT22;33519;50.712;7.124;2023-05-10T03:04:04;12.20;99.90
46706;DHT22;33519;50.712;7.124;2023-05-10T03:06:30;12.10;99.90
46706;DHT22;33519;50.712;7.124;2023-05-10T03:08:57;12.10;99.90
46706;DHT22;33519;50.712;7.124;2023-05-10T03:11:29;12.20;99.90
46706;DHT22;33519;50.712;7.124;2023-05-10T03:16:29;12.20;99.90
46706;DHT22;33519;50.712;7.124;2023-05-10T03:21:25;12.20;99.90
46706;DHT22;33519;50.712;7.124;2023-05-10T03:23:59;12.30;99.90
46706;DHT22;33519;50.712;7.124;2023-05-10T03:26:29;12.30;99.90
46706;DHT22;33519;50.712;7.124;2023-05-10T03:28:56;12.30;99.90
46706;DHT22;33519;50.712;7.124;2023-05-10T03:31:25;12.30;99.90
46706;DHT22;33519;50.712;7.124;2023-05-10T03:33:51;12.30;99.90
46706;DHT22;33519;50.712;7.124;2023-05-10T03:36:18;12.30;99.90
46706;DHT22;33519;50.712;7.124;2023-05-10T03:38:45;12.30;99.90
46706;DHT22;33519;50.712;7.124;2023-05-10T03:41:12;12.30;99.90
46706;DHT22;33519;50.712;7.124;2023-05-10T03:43:38;12.30;99.90
46706;DHT22;33519;50.712;7.124;2023-05-10T03:46:05;12.30;99.90
46706;DHT22;33519;50.712;7.124;2023-05-10T03:48:32;12.30;99.90
46706;DHT22;33519;50.712;7.124;2023-05-10T03:50:58;12.30;99.90
46706;DHT22;33519;50.712;7.124;2023-05-10T03:53:25;12.40;99.90
46706;DHT22;33519;50.712;7.124;2023-05-10T03:55:51;12.40;99.90
46706;DHT22;33519;50.712;7.124;2023-05-10T03:58:18;12.40;99.90
46706;DHT22;33519;50.712;7.124;2023-05-10T04:00:44;12.40;99.90
46706;DHT22;33519;50.712;7.124;2023-05-10T04:03:11;12.40;99.90
46706;DHT22;33519;50.712;7.124;2023-05-10T04:05:38;12.40;99.90
46706;DHT22;33519;50.712;7.124;2023-05-10T04:08:05;12.40;99.90
46706;DHT22;33519;50.712;7.124;2023-05-10T04:10:32;12.40;99.90
46706;DHT22;33519;50.712;7.124;2023-05-10T04:12:58;12.40;99.90
46706;DHT22;33519;50.712;7.124;2023-05-10T04:15:25;12.50;99.90
46706;DHT22;33519;50.712;7.124;2023-05-10T04:17:52;12.50;99.90
46706;DHT22;33519;50.712;7.124;2023-05-10T04:20:18;12.50;99.90
46706;DHT22;33519;50.712;7.124;2023-05-10T04:22:45;12.50;99.90
46706;DHT22;33519;50.712;7.124;2023-05-10T04:25:12;12.50;99.90
46706;DHT22;33519;50.712;7.124;2023-05-10T04:27:38;12.50;99.90
46706;DHT22;33519;50.712;7.124;2023-05-10T04:30:05;12.50;99.90
46706;DHT22;33519;50.712;7.124;2023-05-10T04:32:32;12.50;99.90
46706;DHT22;33519;50.712;7.124;2023-05-10T04:34:58;12.50;99.90
46706;DHT22;33519;50.712;7.124;2023-05-10T04:37:25;12.50;99.90
46706;DHT22;33519;50.712;7.124;2023-05-10T04:39:52;12.60;99.90
46706;DHT22;33519;50.712;7.124;2023-05-10T04:42:18;12.50;99.90
46706;DHT22;33519;50.712;7.124;2023-05-10T04:44:45;12.50;99.90
46706;DHT22;33519;50.712;7.124;2023-05-10T04:47:11;12.60;99.90
46706;DHT22;33519;50.712;7.124;2023-05-10T04:49:39;12.60;99.90
46706;DHT22;33519;50.712;7.124;2023-05-10T04:52:06;12.60;99.90
46706;DHT22;33519;50.712;7.124;2023-05-10T04:54:32;12.50;99.90
46706;DHT22;33519;50.712;7.124;2023-05-10T04:57:01;12.60;99.90
46706;DHT22;33519;50.712;7.124;2023-05-10T04:59:28;12.60;99.90
46706;DHT22;33519;50.712;7.124;2023-05-10T05:01:54;12.70;99.90
46706;DHT22;33519;50.712;7.124;2023-05-10T05:04:21;12.80;99.90
46706;DHT22;33519;50.712;7.124;2023-05-10T05:06:49;12.80;99.90
46706;DHT22;33519;50.712;7.124;2023-05-10T05:09:19;12.70;99.90
46706;DHT22;33519;50.712;7.124;2023-05-10T05:11:46;12.80;99.90
46706;DHT22;33519;50.712;7.124;2023-05-10T05:14:12;12.80;99.90
46706;DHT22;33519;50.712;7.124;2023-05-10T05:16:39;12.80;99.90
46706;DHT22;33519;50.712;7.124;2023-05-10T05:19:06;12.90;99.90
46706;DHT22;33519;50.712;7.124;2023-05-10T05:21:32;12.90;99.90
46706;DHT22;33519;50.712;7.124;2023-05-10T05:23:59;12.90;99.90
46706;DHT22;33519;50.712;7.124;2023-05-10T05:26:26;12.90;99.90
46706;DHT22;33519;50.712;7.124;2023-05-10T05:28:52;12.90;99.90
46706;DHT22;33519;50.712;7.124;2023-05-10T05:31:21;13.00;99.90
46706;DHT22;33519;50.712;7.124;2023-05-10T05:33:47;13.00;99.90
46706;DHT22;33519;50.712;7.124;2023-05-10T05:36:14;13.00;99.90
46706;DHT22;33519;50.712;7.124;2023-05-10T05:38:41;13.10;99.90
46706;DHT22;33519;50.712;7.124;2023-05-10T05:41:07;13.10;99.90
46706;DHT22;33519;50.712;7.124;2023-05-10T05:43:34;13.20;99.90
46706;DHT22;33519;50.712;7.124;2023-05-10T05:46:03;13.30;99.90
46706;DHT22;33519;50.712;7.124;2023-05-10T05:48:30;13.40;99.90
46706;DHT22;33519;50.712;7.124;2023-05-10T05:50:57;13.30;99.90
46706;DHT22;33519;50.712;7.124;2023-05-10T05:53:24;13.30;99.90
46706;DHT22;33519;50.712;7.124;2023-05-10T05:55:54;13.30;99.90
46706;DHT22;33519;50.712;7.124;2023-05-10T05:58:21;13.30;99.90
46706;DHT22;33519;50.712;7.124;2023-05-10T06:00:48;13.40;99.90
46706;DHT22;33519;50.712;7.124;2023-05-10T06:03:14;13.50;99.90
46706;DHT22;33519;50.712;7.124;2023-05-10T06:05:41;13.60;99.90
46706;DHT22;33519;50.712;7.124;2023-05-10T06:08:08;13.70;99.90
46706;DHT22;33519;50.712;7.124;2023-05-10T06:10:35;13.90;99.90
46706;DHT22;33519;50.712;7.124;2023-05-10T06:13:01;14.00;99.90
46706;DHT22;33519;50.712;7.124;2023-05-10T06:15:28;14.20;99.90
46706;DHT22;33519;50.712;7.124;2023-05-10T06:17:55;14.30;99.90
46706;DHT22;33519;50.712;7.124;2023-05-10T06:20:21;14.40;99.90
46706;DHT22;33519;50.712;7.124;2023-05-10T06:22:48;14.30;99.90
46706;DHT22;33519;50.712;7.124;2023-05-10T06:25:15;14.50;99.90
46706;DHT22;33519;50.712;7.124;2023-05-10T06:27:44;14.60;99.90
46706;DHT22;33519;50.712;7.124;2023-05-10T06:30:16;14.60;99.90
46706;DHT22;33519;50.712;7.124;2023-05-10T06:32:43;14.60;99.90
46706;DHT22;33519;50.712;7.124;2023-05-10T06:35:10;14.50;99.90
46706;DHT22;33519;50.712;7.124;2023-05-10T06:37:37;14.40;99.90
46706;DHT22;33519;50.712;7.124;2023-05-10T06:40:05;14.20;99.90
46706;DHT22;33519;50.712;7.124;2023-05-10T06:42:32;14.10;99.90
46706;DHT22;33519;50.712;7.124;2023-05-10T06:44:58;13.90;99.90
46706;DHT22;33519;50.712;7.124;2023-05-10T06:50:05;13.90;99.90
46706;DHT22;33519;50.712;7.124;2023-05-10T06:52:31;13.90;99.90
46706;DHT22;33519;50.712;7.124;2023-05-10T06:54:58;13.90;99.90
46706;DHT22;33519;50.712;7.124;2023-05-10T06:57:24;13.90;99.90
46706;DHT22;33519;50.712;7.124;2023-05-10T06:59:55;13.90;99.90
46706;DHT22;33519;50.712;7.124;2023-05-10T07:02:22;13.90;99.90
46706;DHT22;33519;50.712;7.124;2023-05-10T07:04:49;13.80;99.90
46706;DHT22;33519;50.712;7.124;2023-05-10T07:07:16;14.00;99.90
46706;DHT22;33519;50.712;7.124;2023-05-10T07:09:43;14.10;99.90
46706;DHT22;33519;50.712;7.124;2023-05-10T07:12:09;14.10;99.90
46706;DHT22;33519;50.712;7.124;2023-05-10T07:14:40;14.10;99.90
46706;DHT22;33519;50.712;7.124;2023-05-10T07:17:07;14.20;99.90
46706;DHT22;33519;50.712;7.124;2023-05-10T07:19:33;14.10;99.90
46706;DHT22;33519;50.712;7.124;2023-05-10T07:22:00;14.00;99.90
46706;DHT22;33519;50.712;7.124;2023-05-10T07:24:27;13.80;99.90
46706;DHT22;33519;50.712;7.124;2023-05-10T07:26:53;13.70;99.90
46706;DHT22;33519;50.712;7.124;2023-05-10T07:29:20;13.70;99.90
46706;DHT22;33519;50.712;7.124;2023-05-10T07:31:46;13.60;99.90
46706;DHT22;33519;50.712;7.124;2023-05-10T07:34:13;13.60;99.90
46706;DHT22;33519;50.712;7.124;2023-05-10T07:36:40;13.60;99.90
46706;DHT22;33519;50.712;7.124;2023-05-10T07:39:06;13.50;99.90
46706;DHT22;33519;50.712;7.124;2023-05-10T07:41:33;13.50;99.90
46706;DHT22;33519;50.712;7.124;2023-05-10T07:44:01;13.60;99.90
46706;DHT22;33519;50.712;7.124;2023-05-10T07:46:28;13.70;99.90
46706;DHT22;33519;50.712;7.124;2023-05-10T07:48:55;13.60;99.90
46706;DHT22;33519;50.712;7.124;2023-05-10T07:51:21;13.70;99.90
46706;DHT22;33519;50.712;7.124;2023-05-10T07:53:48;13.70;99.90
46706;DHT22;33519;50.712;7.124;2023-05-10T07:56:25;13.60;99.90
46706;DHT22;33519;50.712;7.124;2023-05-10T07:58:53;13.60;99.90
46706;DHT22;33519;50.712;7.124;2023-05-10T08:01:20;13.60;99.90
46706;DHT22;33519;50.712;7.124;2023-05-10T08:03:47;13.60;99.90
46706;DHT22;33519;50.712;7.124;2023-05-10T08:06:17;13.70;99.90
46706;DHT22;33519;50.712;7.124;2023-05-10T08:08:45;13.70;99.90
46706;DHT22;33519;50.712;7.124;2023-05-10T08:11:17;13.70;99.90
46706;DHT22;33519;50.712;7.124;2023-05-10T08:13:44;13.90;99.90
46706;DHT22;33519;50.712;7.124;2023-05-10T08:16:11;14.10;99.90
46706;DHT22;33519;50.712;7.124;2023-05-10T08:18:38;14.40;99.90
46706;DHT22;33519;50.712;7.124;2023-05-10T08:21:05;14.40;99.90
46706;DHT22;33519;50.712;7.124;2023-05-10T08:23:32;14.70;99.90
46706;DHT22;33519;50.712;7.124;2023-05-10T08:25:59;14.80;99.90
46706;DHT22;33519;50.712;7.124;2023-05-10T08:28:25;15.00;99.90
46706;DHT22;33519;50.712;7.124;2023-05-10T08:30:52;15.10;99.90
46706;DHT22;33519;50.712;7.124;2023-05-10T08:33:19;15.40;99.90
46706;DHT22;33519;50.712;7.124;2023-05-10T08:35:45;15.60;99.90
46706;DHT22;33519;50.712;7.124;2023-05-10T08:38:12;15.30;99.90
46706;DHT22;33519;50.712;7.124;2023-05-10T08:40:40;15.10;99.90
46706;DHT22;33519;50.712;7.124;2023-05-10T08:43:09;14.90;99.90
46706;DHT22;33519;50.712;7.124;2023-05-10T08:45:37;14.70;99.90
46706;DHT22;33519;50.712;7.124;2023-05-10T08:48:07;14.50;99.90
46706;DHT22;33519;50.712;7.124;2023-05-10T08:50:38;14.50;99.90
46706;DHT22;33519;50.712;7.124;2023-05-10T08:53:09;14.70;99.90
46706;DHT22;33519;50.712;7.124;2023-05-10T08:55:36;14.70;99.90
46706;DHT22;33519;50.712;7.124;2023-05-10T08:58:04;14.70;99.90
46706;DHT22;33519;50.712;7.124;2023-05-10T09:00:32;14.80;99.90
46706;DHT22;33519;50.712;7.124;2023-05-10T09:02:59;14.80;99.90
46706;DHT22;33519;50.712;7.124;2023-05-10T09:05:26;14.60;99.90
46706;DHT22;33519;50.712;7.124;2023-05-10T09:07:53;14.20;99.90
46706;DHT22;33519;50.712;7.124;2023-05-10T09:10:20;14.00;99.90
46706;DHT22;33519;50.712;7.124;2023-05-10T09:12:47;13.80;99.90
46706;DHT22;33519;50.712;7.124;2023-05-10T09:15:14;13.70;99.90
46706;DHT22;33519;50.712;7.124;2023-05-10T09:20:12;13.70;99.90
46706;DHT22;33519;50.712;7.124;2023-05-10T09:22:39;13.70;99.90
46706;DHT22;33519;50.712;7.124;2023-05-10T09:25:10;13.70;99.90
46706;DHT22;33519;50.712;7.124;2023-05-10T09:27:38;13.80;99.90
46706;DHT22;33519;50.712;7.124;2023-05-10T09:30:05;13.80;99.90
46706;DHT22;33519;50.712;7.124;2023-05-10T09:32:39;13.70;99.90
46706;DHT22;33519;50.712;7.124;2023-05-10T09:35:10;13.60;99.90
46706;DHT22;33519;50.712;7.124;2023-05-10T09:37:38;13.60;99.90
46706;DHT22;33519;50.712;7.124;2023-05-10T09:40:06;13.70;99.90
46706;DHT22;33519;50.712;7.124;2023-05-10T09:42:34;13.70;99.90
46706;DHT22;33519;50.712;7.124;2023-05-10T09:45:02;14.00;99.90
46706;DHT22;33519;50.712;7.124;2023-05-10T09:47:36;14.00;99.90
46706;DHT22;33519;50.712;7.124;2023-05-10T09:50:03;14.20;99.90
46706;DHT22;33519;50.712;7.124;2023-05-10T09:52:31;14.20;99.90
46706;DHT22;33519;50.712;7.124;2023-05-10T09:55:11;14.40;99.90
46706;DHT22;33519;50.712;7.124;2023-05-10T09:57:40;14.60;99.90
46706;DHT22;33519;50.712;7.124;2023-05-10T10:00:16;14.90;99.90
46706;DHT22;33519;50.712;7.124;2023-05-10T10:02:42;15.40;99.90
46706;DHT22;33519;50.712;7.124;2023-05-10T10:05:11;15.50;99.90
46706;DHT22;33519;50.712;7.124;2023-05-10T10:07:38;15.60;99.90
46706;DHT22;33519;50.712;7.124;2023-05-10T10:10:05;16.00;99.90
46706;DHT22;33519;50.712;7.124;2023-05-10T10:12:32;16.30;99.90
46706;DHT22;33519;50.712;7.124;2023-05-10T10:14:59;15.90;99.90
46706;DHT22;33519;50.712;7.124;2023-05-10T10:17:26;16.10;99.90
46706;DHT22;33519;50.712;7.124;2023-05-10T10:19:54;16.00;99.90
46706;DHT22;33519;50.712;7.124;2023-05-10T10:22:21;15.80;99.90
46706;DHT22;33519;50.712;7.124;2023-05-10T10:24:48;15.50;99.90
46706;DHT22;33519;50.712;7.124;2023-05-10T10:30:03;15.10;99.90
46706;DHT22;33519;50.712;7.124;2023-05-10T10:32:48;15.20;99.90
46706;DHT22;33519;50.712;7.124;2023-05-10T10:35:20;15.20;99.90
46706;DHT22;33519;50.712;7.124;2023-05-10T10:37:47;15.10;99.90
46706;DHT22;33519;50.712;7.124;2023-05-10T10:40:23;14.80;99.90
46706;DHT22;33519;50.712;7.124;2023-05-10T10:42:50;14.60;99.90
46706;DHT22;33519;50.712;7.124;2023-05-10T10:45:16;14.90;99.90
46706;DHT22;33519;50.712;7.124;2023-05-10T10:47:44;15.40;99.90
46706;DHT22;33519;50.712;7.124;2023-05-10T10:50:11;16.20;99.90
46706;DHT22;33519;50.712;7.124;2023-05-10T10:52:42;17.20;99.90
46706;DHT22;33519;50.712;7.124;2023-05-10T10:55:10;17.90;99.90
46706;DHT22;33519;50.712;7.124;2023-05-10T11:02:52;16.60;99.90
46706;DHT22;33519;50.712;7.124;2023-05-10T11:05:33;16.50;99.90
46706;DHT22;33519;50.712;7.124;2023-05-10T11:08:46;16.60;99.90
46706;DHT22;33519;50.712;7.124;2023-05-10T11:10:49;16.80;99.90
46706;DHT22;33519;50.712;7.124;2023-05-10T11:13:26;17.40;99.90
46706;DHT22;33519;50.712;7.124;2023-05-10T11:15:53;17.20;99.90
46706;DHT22;33519;50.712;7.124;2023-05-10T11:18:20;17.10;99.90
46706;DHT22;33519;50.712;7.124;2023-05-10T11:20:51;17.30;99.90
46706;DHT22;33519;50.712;7.124;2023-05-10T11:23:17;17.40;99.90
46706;DHT22;33519;50.712;7.124;2023-05-10T11:25:45;17.90;99.90
46706;DHT22;33519;50.712;7.124;2023-05-10T11:28:16;18.00;99.90
46706;DHT22;33519;50.712;7.124;2023-05-10T11:30:43;17.70;99.90
46706;DHT22;33519;50.712;7.124;2023-05-10T11:33:14;17.80;99.90
46706;DHT22;33519;50.712;7.124;2023-05-10T11:35:41;18.10;99.90
46706;DHT22;33519;50.712;7.124;2023-05-10T11:38:09;17.60;99.90
46706;DHT22;33519;50.712;7.124;2023-05-10T11:40:37;18.00;99.90
46706;DHT22;33519;50.712;7.124;2023-05-10T11:43:04;17.80;99.90
46706;DHT22;33519;50.712;7.124;2023-05-10T11:45:32;18.00;99.90
46706;DHT22;33519;50.712;7.124;2023-05-10T11:47:59;18.30;99.90
46706;DHT22;33519;50.712;7.124;2023-05-10T11:50:26;18.50;99.90
46706;DHT22;33519;50.712;7.124;2023-05-10T11:52:56;18.70;99.90
46706;DHT22;33519;50.712;7.124;2023-05-10T11:55:22;18.90;99.90
46706;DHT22;33519;50.712;7.124;2023-05-10T11:57:53;18.50;99.90
46706;DHT22;33519;50.712;7.124;2023-05-10T12:00:20;18.30;99.90
46706;DHT22;33519;50.712;7.124;2023-05-10T12:02:48;18.20;99.90
46706;DHT22;33519;50.712;7.124;2023-05-10T12:05:14;17.70;99.90
46706;DHT22;33519;50.712;7.124;2023-05-10T12:07:41;17.50;99.90
46706;DHT22;33519;50.712;7.124;2023-05-10T12:10:08;16.90;99.90
46706;DHT22;33519;50.712;7.124;2023-05-10T12:12:39;16.80;99.90
46706;DHT22;33519;50.712;7.124;2023-05-10T12:15:11;16.60;99.90
46706;DHT22;33519;50.712;7.124;2023-05-10T12:17:39;16.80;99.90
46706;DHT22;33519;50.712;7.124;2023-05-10T12:22:46;17.10;99.90
46706;DHT22;33519;50.712;7.124;2023-05-10T12:25:13;16.80;99.90
46706;DHT22;33519;50.712;7.124;2023-05-10T12:27:47;16.60;99.90
46706;DHT22;33519;50.712;7.124;2023-05-10T12:30:18;16.80;99.90
46706;DHT22;33519;50.712;7.124;2023-05-10T12:32:45;16.90;99.90
46706;DHT22;33519;50.712;7.124;2023-05-10T12:35:11;16.50;99.90
46706;DHT22;33519;50.712;7.124;2023-05-10T12:37:38;16.50;99.90
46706;DHT22;33519;50.712;7.124;2023-05-10T12:40:06;16.40;99.90
46706;DHT22;33519;50.712;7.124;2023-05-10T12:42:33;16.60;99.90
46706;DHT22;33519;50.712;7.124;2023-05-10T12:44:59;16.60;99.90
46706;DHT22;33519;50.712;7.124;2023-05-10T12:47:26;16.90;99.90
46706;DHT22;33519;50.712;7.124;2023-05-10T12:49:52;17.00;99.90
46706;DHT22;33519;50.712;7.124;2023-05-10T12:52:19;17.10;99.90
46706;DHT22;33519;50.712;7.124;2023-05-10T12:54:46;17.30;99.90
46706;DHT22;33519;50.712;7.124;2023-05-10T12:57:13;17.40;99.90
46706;DHT22;33519;50.712;7.124;2023-05-10T12:59:39;16.90;99.90
46706;DHT22;33519;50.712;7.124;2023-05-10T13:02:06;16.40;99.90
46706;DHT22;33519;50.712;7.124;2023-05-10T13:04:33;16.00;99.90
46706;DHT22;33519;50.712;7.124;2023-05-10T13:06:59;15.40;99.90
46706;DHT22;33519;50.712;7.124;2023-05-10T13:09:26;15.20;99.90
46706;DHT22;33519;50.712;7.124;2023-05-10T13:11:54;15.10;99.90
46706;DHT22;33519;50.712;7.124;2023-05-10T13:14:21;14.90;99.90
46706;DHT22;33519;50.712;7.124;2023-05-10T13:16:48;15.00;99.90
46706;DHT22;33519;50.712;7.124;2023-05-10T13:19:15;15.20;99.90
46706;DHT22;33519;50.712;7.124;2023-05-10T13:21:42;15.50;99.90
46706;DHT22;33519;50.712;7.124;2023-05-10T13:24:10;15.90;99.90
46706;DHT22;33519;50.712;7.124;2023-05-10T13:26:37;16.40;99.90
46706;DHT22;33519;50.712;7.124;2023-05-10T13:29:06;16.70;99.90
46706;DHT22;33519;50.712;7.124;2023-05-10T13:31:33;17.10;99.90
46706;DHT22;33519;50.712;7.124;2023-05-10T13:33:59;17.20;99.90
46706;DHT22;33519;50.712;7.124;2023-05-10T13:36:26;17.00;99.90
46706;DHT22;33519;50.712;7.124;2023-05-10T13:38:52;17.00;99.90
46706;DHT22;33519;50.712;7.124;2023-05-10T13:41:19;16.90;99.90
46706;DHT22;33519;50.712;7.124;2023-05-10T13:43:46;16.60;99.90
46706;DHT22;33519;50.712;7.124;2023-05-10T13:46:14;16.40;99.90
46706;DHT22;33519;50.712;7.124;2023-05-10T13:48:41;16.20;99.90
46706;DHT22;33519;50.712;7.124;2023-05-10T13:51:07;16.10;99.90
46706;DHT22;33519;50.712;7.124;2023-05-10T13:53:34;15.90;99.90
46706;DHT22;33519;50.712;7.124;2023-05-10T13:56:01;15.80;99.90
46706;DHT22;33519;50.712;7.124;2023-05-10T13:58:29;15.80;99.90
46706;DHT22;33519;50.712;7.124;2023-05-10T14:00:55;15.70;99.90
46706;DHT22;33519;50.712;7.124;2023-05-10T14:03:22;15.50;99.90
46706;DHT22;33519;50.712;7.124;2023-05-10T14:05:49;15.50;99.90
46706;DHT22;33519;50.712;7.124;2023-05-10T14:08:15;15.40;99.90
46706;DHT22;33519;50.712;7.124;2023-05-10T14:10:42;15.40;99.90
46706;DHT22;33519;50.712;7.124;2023-05-10T14:13:08;15.30;99.90
46706;DHT22;33519;50.712;7.124;2023-05-10T14:15:35;15.10;99.90
46706;DHT22;33519;50.712;7.124;2023-05-10T14:18:01;15.00;99.90
46706;DHT22;33519;50.712;7.124;2023-05-10T14:20:28;14.80;99.90
46706;DHT22;33519;50.712;7.124;2023-05-10T14:22:55;14.60;99.90
46706;DHT22;33519;50.712;7.124;2023-05-10T14:25:21;14.50;99.90
46706;DHT22;33519;50.712;7.124;2023-05-10T14:27:48;14.30;99.90
46706;DHT22;33519;50.712;7.124;2023-05-10T14:30:14;14.30;99.90
46706;DHT22;33519;50.712;7.124;2023-05-10T14:32:41;14.40;99.90
46706;DHT22;33519;50.712;7.124;2023-05-10T14:35:08;14.40;99.90
46706;DHT22;33519;50.712;7.124;2023-05-10T14:37:38;14.50;99.90
46706;DHT22;33519;50.712;7.124;2023-05-10T14:40:05;14.50;99.90
46706;DHT22;33519;50.712;7.124;2023-05-10T14:42:34;14.60;99.90
46706;DHT22;33519;50.712;7.124;2023-05-10T14:45:00;14.80;99.90
46706;DHT22;33519;50.712;7.124;2023-05-10T14:47:27;15.00;99.90
46706;DHT22;33519;50.712;7.124;2023-05-10T14:49:53;15.40;99.90
46706;DHT22;33519;50.712;7.124;2023-05-10T14:52:20;15.50;99.90
46706;DHT22;33519;50.712;7.124;2023-05-10T14:54:46;15.70;99.90
46706;DHT22;33519;50.712;7.124;2023-05-10T14:57:13;15.50;99.90
46706;DHT22;33519;50.712;7.124;2023-05-10T14:59:41;15.30;99.90
46706;DHT22;33519;50.712;7.124;2023-05-10T15:02:08;15.10;99.90
46706;DHT22;33519;50.712;7.124;2023-05-10T15:04:37;15.20;99.90
46706;DHT22;33519;50.712;7.124;2023-05-10T15:07:04;15.30;99.90
46706;DHT22;33519;50.712;7.124;2023-05-10T15:09:31;15.90;99.90
46706;DHT22;33519;50.712;7.124;2023-05-10T15:11:57;16.90;99.90
46706;DHT22;33519;50.712;7.124;2023-05-10T15:14:24;17.60;99.90
46706;DHT22;33519;50.712;7.124;2023-05-10T15:16:50;17.80;99.90
46706;DHT22;33519;50.712;7.124;2023-05-10T15:19:17;17.30;99.90
46706;DHT22;33519;50.712;7.124;2023-05-10T15:21:44;16.90;99.90
46706;DHT22;33519;50.712;7.124;2023-05-10T15:24:11;16.60;99.90
46706;DHT22;33519;50.712;7.124;2023-05-10T15:26:37;16.20;99.90
46706;DHT22;33519;50.712;7.124;2023-05-10T15:29:04;15.70;99.90
46706;DHT22;33519;50.712;7.124;2023-05-10T15:31:30;15.30;99.90
46706;DHT22;33519;50.712;7.124;2023-05-10T15:33:57;15.10;99.90
46706;DHT22;33519;50.712;7.124;2023-05-10T15:36:26;15.10;99.90
46706;DHT22;33519;50.712;7.124;2023-05-10T15:38:53;15.00;99.90
46706;DHT22;33519;50.712;7.124;2023-05-10T15:41:20;14.80;99.90
46706;DHT22;33519;50.712;7.124;2023-05-10T15:43:47;14.90;99.90
46706;DHT22;33519;50.712;7.124;2023-05-10T15:46:13;14.80;99.90
46706;DHT22;33519;50.712;7.124;2023-05-10T15:48:40;14.70;99.90
46706;DHT22;33519;50.712;7.124;2023-05-10T15:51:25;14.70;99.90
46706;DHT22;33519;50.712;7.124;2023-05-10T15:53:52;14.60;99.90
46706;DHT22;33519;50.712;7.124;2023-05-10T15:56:32;14.70;99.90
46706;DHT22;33519;50.712;7.124;2023-05-10T15:59:02;14.80;99.90
46706;DHT22;33519;50.712;7.124;2023-05-10T16:01:29;14.90;99.90
46706;DHT22;33519;50.712;7.124;2023-05-10T16:03:56;15.00;99.90
46706;DHT22;33519;50.712;7.124;2023-05-10T16:06:23;14.90;99.90
46706;DHT22;33519;50.712;7.124;2023-05-10T16:08:49;14.90;99.90
46706;DHT22;33519;50.712;7.124;2023-05-10T16:11:18;14.70;99.90